createdAt,value
2017-10-16T00:01:53.599Z,19.90
2017-10-16T00:04:21.784Z,20.10
2017-10-16T00:06:49.206Z,23.10
2017-10-16T00:09:16.625Z,31.27
2017-10-16T00:11:44.043Z,33.87
2017-10-16T00:14:12.220Z,36.33
2017-10-16T00:16:40.404Z,37.10
2017-10-16T00:19:07.826Z,32.70
2017-10-16T00:21:35.255Z,34.70
2017-10-16T00:24:02.679Z,26.70
2017-10-16T00:26:30.097Z,29.90
2017-10-16T00:28:57.523Z,25.87
2017-10-16T00:31:24.955Z,28.07
2017-10-16T00:33:52.376Z,24.30
2017-10-16T00:36:20.566Z,30.57
2017-10-16T00:38:47.984Z,29.90
2017-10-16T00:41:15.405Z,33.50
2017-10-16T00:43:42.825Z,30.43
2017-10-16T00:46:11.022Z,30.43
2017-10-16T00:48:38.444Z,25.07
2017-10-16T00:51:06.648Z,21.50
2017-10-16T00:53:34.055Z,17.33
2017-10-16T00:56:01.471Z,17.43
2017-10-16T00:58:28.900Z,16.87
2017-10-16T01:00:57.101Z,16.33
2017-10-16T01:03:24.499Z,14.57
2017-10-16T01:05:51.917Z,15.43
2017-10-16T01:08:19.334Z,15.63
2017-10-16T01:10:47.518Z,15.70
2017-10-16T01:13:14.938Z,15.47
2017-10-16T01:15:42.368Z,16.13
2017-10-16T01:18:09.785Z,16.93
2017-10-16T01:20:37.200Z,17.57
2017-10-16T01:23:04.635Z,15.93
2017-10-16T01:25:32.041Z,14.63
2017-10-16T01:28:00.246Z,14.20
2017-10-16T01:30:27.656Z,15.43
2017-10-16T01:32:55.082Z,13.33
2017-10-16T01:35:22.499Z,12.70
2017-10-16T01:37:49.946Z,12.83
2017-10-16T01:40:18.130Z,12.80
2017-10-16T01:42:45.558Z,13.60
2017-10-16T01:45:12.974Z,15.10
2017-10-16T01:47:40.395Z,21.67
2017-10-16T01:50:08.589Z,20.97
2017-10-16T01:52:35.989Z,24.50
2017-10-16T01:55:03.403Z,15.63
2017-10-16T01:57:30.818Z,22.47
2017-10-16T01:59:58.234Z,28.00
2017-10-16T02:02:25.662Z,22.47
2017-10-16T02:04:53.072Z,18.90
2017-10-16T02:07:20.501Z,18.07
2017-10-16T02:09:47.905Z,18.60
2017-10-16T02:12:16.097Z,17.13
2017-10-16T02:14:44.274Z,17.87
2017-10-16T02:17:26.257Z,16.00
2017-10-16T02:19:54.442Z,17.57
2017-10-16T02:22:21.868Z,16.73
2017-10-16T02:24:49.278Z,16.60
2017-10-16T02:27:16.703Z,15.30
2017-10-16T02:29:44.883Z,16.50
2017-10-16T02:32:13.058Z,15.23
2017-10-16T02:34:40.466Z,15.10
2017-10-16T02:37:07.891Z,17.20
2017-10-16T02:39:35.301Z,17.27
2017-10-16T02:42:03.493Z,17.70
2017-10-16T02:44:31.662Z,16.57
2017-10-16T02:46:59.850Z,18.33
2017-10-16T02:49:27.254Z,17.17
2017-10-16T02:51:54.680Z,17.03
2017-10-16T02:54:22.091Z,15.10
2017-10-16T02:56:49.510Z,16.87
2017-10-16T02:59:16.926Z,16.70
2017-10-16T03:01:44.333Z,20.73
2017-10-16T03:04:11.759Z,20.40
2017-10-16T03:06:39.170Z,18.20
2017-10-16T03:09:06.589Z,19.83
2017-10-16T03:11:34.005Z,20.23
2017-10-16T03:14:01.426Z,22.80
2017-10-16T03:16:28.824Z,26.87
2017-10-16T03:18:56.250Z,20.53
2017-10-16T03:21:23.655Z,19.93
2017-10-16T03:23:51.069Z,32.00
2017-10-16T03:26:19.258Z,33.50
2017-10-16T03:28:47.437Z,36.30
2017-10-16T03:31:14.849Z,29.83
2017-10-16T03:33:42.267Z,28.37
2017-10-16T03:36:09.673Z,26.43
2017-10-16T03:38:37.108Z,30.30
2017-10-16T03:41:04.513Z,28.97
2017-10-16T03:43:31.937Z,32.87
2017-10-16T03:45:59.352Z,32.40
2017-10-16T03:48:26.766Z,35.43
2017-10-16T03:50:54.949Z,30.70
2017-10-16T03:53:23.138Z,32.87
2017-10-16T03:55:50.558Z,27.47
2017-10-16T03:58:17.986Z,31.23
2017-10-16T04:00:45.406Z,30.80
2017-10-16T04:03:12.825Z,27.30
2017-10-16T04:05:40.247Z,27.70
2017-10-16T04:08:07.680Z,29.77
2017-10-16T04:10:35.094Z,27.77
2017-10-16T04:13:02.516Z,27.20
2017-10-16T04:15:29.936Z,31.80
2017-10-16T04:17:57.354Z,29.30
2017-10-16T04:20:24.775Z,27.70
2017-10-16T04:22:52.201Z,26.50
2017-10-16T04:25:19.609Z,24.43
2017-10-16T04:27:47.041Z,24.00
2017-10-16T04:30:14.457Z,21.40
2017-10-16T04:32:42.647Z,22.00
2017-10-16T04:35:10.070Z,17.73
2017-10-16T04:37:38.253Z,18.30
2017-10-16T04:40:05.684Z,24.10
2017-10-16T04:42:33.087Z,19.87
2017-10-16T04:45:00.513Z,20.70
2017-10-16T04:47:27.926Z,20.30
2017-10-16T04:49:55.337Z,18.57
2017-10-16T04:52:23.513Z,20.77
2017-10-16T04:54:51.693Z,18.27
2017-10-16T04:57:19.873Z,19.80
2017-10-16T04:59:48.068Z,19.17
2017-10-16T05:02:15.465Z,20.43
2017-10-16T05:04:42.904Z,19.90
2017-10-16T05:07:10.309Z,18.03
2017-10-16T05:09:38.499Z,17.63
2017-10-16T05:12:05.910Z,17.63
2017-10-16T05:14:33.350Z,17.90
2017-10-16T05:17:00.767Z,16.53
2017-10-16T05:19:28.177Z,17.20
2017-10-16T05:21:55.595Z,21.30
2017-10-16T05:24:23.018Z,22.33
2017-10-16T05:26:51.204Z,23.37
2017-10-16T05:29:19.377Z,22.60
2017-10-16T05:31:46.790Z,20.70
2017-10-16T05:34:14.217Z,25.80
2017-10-16T05:36:41.634Z,23.87
2017-10-16T05:39:09.814Z,23.87
2017-10-16T05:41:37.998Z,20.30
2017-10-16T05:44:05.401Z,26.80
2017-10-16T05:46:32.834Z,24.20
2017-10-16T05:49:00.242Z,22.97
2017-10-16T05:51:29.202Z,22.60
2017-10-16T05:53:56.618Z,28.03
2017-10-16T05:56:24.028Z,26.60
2017-10-16T05:58:51.443Z,24.73
2017-10-16T06:01:18.857Z,26.50
2017-10-16T06:03:46.270Z,32.43
2017-10-16T06:06:13.690Z,28.80
2017-10-16T06:08:41.102Z,29.73
2017-10-16T06:11:08.537Z,33.13
2017-10-16T06:13:35.956Z,31.13
2017-10-16T06:16:04.150Z,30.33
2017-10-16T06:18:31.575Z,28.77
2017-10-16T06:20:58.976Z,26.70
2017-10-16T06:23:26.403Z,25.37
2017-10-16T06:25:53.813Z,22.80
2017-10-16T06:28:21.260Z,20.90
2017-10-16T06:30:48.662Z,20.87
2017-10-16T06:33:16.845Z,21.40
2017-10-16T06:35:44.270Z,23.23
2017-10-16T06:38:11.706Z,26.27
2017-10-16T06:40:39.109Z,28.47
2017-10-16T06:43:06.522Z,26.40
2017-10-16T06:45:33.949Z,39.30
2017-10-16T06:48:01.366Z,37.10
2017-10-16T06:50:29.555Z,36.60
2017-10-16T06:52:56.988Z,27.67
2017-10-16T06:55:25.174Z,22.60
2017-10-16T06:57:53.365Z,24.13
2017-10-16T07:00:20.784Z,21.80
2017-10-16T07:02:48.201Z,21.23
2017-10-16T07:05:15.630Z,18.47
2017-10-16T07:07:43.033Z,20.80
2017-10-16T07:10:10.466Z,19.47
2017-10-16T07:12:37.875Z,19.30
2017-10-16T07:15:06.065Z,17.37
2017-10-16T07:17:33.477Z,16.13
2017-10-16T07:20:00.907Z,16.80
2017-10-16T07:22:28.313Z,14.60
2017-10-16T07:24:56.497Z,14.77
2017-10-16T07:27:24.678Z,15.30
2017-10-16T07:29:52.871Z,15.63
2017-10-16T07:32:20.287Z,14.83
2017-10-16T07:34:47.705Z,14.40
2017-10-16T07:37:15.126Z,14.33
2017-10-16T07:39:42.904Z,13.57
2017-10-16T07:42:10.327Z,13.63
2017-10-16T07:44:37.733Z,13.43
2017-10-16T07:47:05.164Z,15.00
2017-10-16T07:49:32.583Z,19.33
2017-10-16T07:52:00.007Z,14.07
2017-10-16T07:54:27.418Z,13.43
2017-10-16T07:56:55.602Z,13.70
2017-10-16T07:59:23.026Z,13.20
2017-10-16T08:01:50.443Z,13.47
2017-10-16T08:04:17.871Z,12.27
2017-10-16T08:06:45.286Z,11.43
2017-10-16T08:09:12.711Z,12.90
2017-10-16T08:11:40.130Z,12.10
2017-10-16T08:14:08.322Z,12.27
2017-10-16T08:16:35.729Z,11.40
2017-10-16T08:19:03.153Z,10.10
2017-10-16T08:21:30.572Z,10.90
2017-10-16T08:23:58.762Z,11.80
2017-10-16T08:26:26.186Z,11.30
2017-10-16T08:28:53.601Z,10.57
2017-10-16T08:31:21.023Z,11.57
2017-10-16T08:33:48.442Z,11.47
2017-10-16T08:36:15.844Z,11.27
2017-10-16T08:38:43.267Z,11.33
2017-10-16T08:41:11.450Z,11.20
2017-10-16T08:43:39.647Z,10.90
2017-10-16T08:46:07.057Z,10.27
2017-10-16T08:48:34.484Z,10.63
2017-10-16T08:51:01.885Z,11.10
2017-10-16T08:53:30.075Z,10.10
2017-10-16T08:55:58.255Z,11.40
2017-10-16T08:58:26.455Z,11.73
2017-10-16T09:00:53.866Z,9.57
2017-10-16T09:03:31.710Z,9.97
2017-10-16T09:05:59.130Z,10.20
2017-10-16T09:08:27.322Z,11.30
2017-10-16T09:10:54.807Z,9.90
2017-10-16T09:13:22.211Z,10.43
2017-10-16T09:15:50.390Z,9.30
2017-10-16T09:18:18.580Z,11.00
2017-10-16T09:20:45.994Z,11.97
2017-10-16T09:23:13.420Z,11.93
2017-10-16T09:25:40.841Z,10.23
2017-10-16T09:28:09.041Z,11.17
2017-10-16T09:30:36.469Z,11.30
2017-10-16T09:33:04.657Z,10.50
2017-10-16T09:35:32.078Z,10.63
2017-10-16T09:37:59.489Z,10.00
2017-10-16T09:40:26.914Z,9.83
2017-10-16T09:42:55.095Z,9.40
2017-10-16T09:45:22.507Z,8.50
2017-10-16T09:47:49.924Z,9.43
2017-10-16T09:50:17.336Z,9.30
2017-10-16T09:52:45.519Z,8.60
2017-10-16T09:55:13.706Z,7.80
2017-10-16T09:57:41.114Z,8.20
2017-10-16T10:00:08.541Z,8.30
2017-10-16T10:02:35.946Z,8.60
2017-10-16T10:05:03.371Z,7.57
2017-10-16T10:07:30.786Z,7.50
2017-10-16T10:09:58.982Z,8.83
2017-10-16T10:15:16.071Z,8.13
2017-10-16T10:17:43.509Z,7.43
2017-10-16T10:20:10.934Z,7.17
2017-10-16T10:22:38.340Z,7.77
2017-10-16T10:25:06.517Z,7.43
2017-10-16T10:27:34.699Z,7.50
2017-10-16T10:30:02.880Z,6.50
2017-10-16T10:32:31.048Z,6.80
2017-10-16T10:34:59.238Z,7.30
2017-10-16T10:37:26.651Z,6.90
2017-10-16T10:39:54.086Z,7.87
2017-10-16T10:42:21.502Z,7.73
2017-10-16T10:44:48.930Z,7.90
2017-10-16T10:47:16.341Z,7.57
2017-10-16T10:49:43.748Z,7.40
2017-10-16T10:52:11.930Z,8.20
2017-10-16T10:54:40.105Z,8.90
2017-10-16T10:57:08.286Z,7.73
2017-10-16T10:59:35.699Z,7.83
2017-10-16T11:02:03.117Z,8.13
2017-10-16T11:04:30.532Z,8.80
2017-10-16T11:06:57.949Z,9.53
2017-10-16T11:09:25.358Z,8.50
2017-10-16T11:11:53.537Z,8.83
2017-10-16T11:14:21.722Z,9.17
2017-10-16T11:16:49.141Z,8.43
2017-10-16T11:19:16.556Z,7.57
2017-10-16T11:21:43.970Z,9.47
2017-10-16T11:24:12.150Z,9.40
2017-10-16T11:26:40.340Z,8.00
2017-10-16T11:29:07.758Z,7.77
2017-10-16T11:31:35.182Z,8.07
2017-10-16T11:34:02.602Z,7.57
2017-10-16T11:36:30.014Z,7.70
2017-10-16T11:38:57.424Z,8.40
2017-10-16T11:41:24.832Z,7.07
2017-10-16T11:43:52.248Z,7.70
2017-10-16T11:46:19.655Z,7.77
2017-10-16T11:48:47.064Z,7.70
2017-10-16T11:51:14.481Z,8.97
2017-10-16T11:53:42.666Z,8.07
2017-10-16T11:56:10.078Z,7.80
2017-10-16T11:58:37.488Z,8.57
2017-10-16T12:01:04.906Z,8.23
2017-10-16T12:03:32.318Z,8.07
2017-10-16T12:05:59.734Z,8.00
2017-10-16T12:08:27.935Z,7.90
2017-10-16T12:10:55.341Z,7.83
2017-10-16T12:13:22.853Z,8.67
2017-10-16T12:15:50.274Z,8.33
2017-10-16T12:18:18.450Z,8.60
2017-10-16T12:20:46.667Z,8.10
2017-10-16T12:23:14.077Z,8.13
2017-10-16T12:25:42.266Z,7.60
2017-10-16T12:28:10.442Z,7.20
2017-10-16T12:30:37.861Z,8.07
2017-10-16T12:33:05.279Z,7.30
2017-10-16T12:35:32.690Z,7.87
2017-10-16T12:38:01.732Z,8.30
2017-10-16T12:40:29.150Z,8.20
2017-10-16T12:42:57.317Z,8.37
2017-10-16T12:45:25.503Z,8.70
2017-10-16T12:47:53.702Z,7.80
2017-10-16T12:50:21.123Z,8.57
2017-10-16T12:52:49.306Z,8.43
2017-10-16T12:55:17.489Z,8.13
2017-10-16T12:57:44.894Z,7.97
2017-10-16T13:00:12.326Z,8.40
2017-10-16T13:02:41.571Z,7.70
2017-10-16T13:05:21.572Z,8.30
2017-10-16T13:07:48.984Z,6.93
2017-10-16T13:10:16.397Z,7.80
2017-10-16T13:12:43.815Z,8.13
2017-10-16T13:15:12.002Z,9.13
2017-10-16T13:17:39.407Z,8.93
2017-10-16T13:20:06.822Z,8.33
2017-10-16T13:22:34.250Z,9.07
2017-10-16T13:25:02.429Z,8.00
2017-10-16T13:27:29.843Z,7.17
2017-10-16T13:29:57.253Z,8.67
2017-10-16T13:32:24.670Z,8.50
2017-10-16T13:34:52.079Z,8.40
2017-10-16T13:37:19.506Z,8.17
2017-10-16T13:39:47.685Z,7.90
2017-10-16T13:42:15.867Z,8.37
2017-10-16T13:44:43.280Z,8.10
2017-10-16T13:47:10.699Z,6.70
2017-10-16T13:49:38.109Z,7.97
2017-10-16T13:52:06.297Z,8.53
2017-10-16T13:54:34.475Z,7.63
2017-10-16T13:57:02.654Z,8.17
2017-10-16T13:59:30.070Z,9.03
2017-10-16T14:01:57.489Z,8.87
2017-10-16T14:04:29.329Z,8.10
2017-10-16T14:06:56.749Z,8.33
2017-10-16T14:09:24.149Z,7.87
2017-10-16T14:11:51.561Z,8.43
2017-10-16T14:14:18.974Z,8.90
2017-10-16T14:16:46.388Z,8.67
2017-10-16T14:19:15.718Z,10.00
2017-10-16T14:21:43.129Z,8.70
2017-10-16T14:24:10.537Z,8.60
2017-10-16T14:26:37.949Z,8.20
2017-10-16T14:29:06.123Z,8.50
2017-10-16T14:31:33.542Z,8.60
2017-10-16T14:34:00.978Z,8.63
2017-10-16T14:36:28.388Z,8.10
2017-10-16T14:38:55.811Z,8.50
2017-10-16T14:41:23.226Z,8.33
2017-10-16T14:43:51.390Z,8.10
2017-10-16T14:46:19.578Z,8.60
2017-10-16T14:48:47.056Z,8.50
2017-10-16T14:51:14.521Z,8.33
2017-10-16T14:53:41.922Z,7.77
2017-10-16T14:56:10.105Z,9.40
2017-10-16T14:58:38.298Z,8.77
2017-10-16T15:01:05.775Z,9.60
2017-10-16T15:03:33.182Z,8.90
2017-10-16T15:06:01.363Z,8.67
2017-10-16T15:08:29.542Z,8.50
2017-10-16T15:10:57.722Z,10.40
2017-10-16T15:13:26.450Z,8.87
2017-10-16T15:15:53.861Z,8.70
2017-10-16T15:18:22.146Z,10.47
2017-10-16T15:20:49.563Z,9.57
2017-10-16T15:23:16.984Z,11.13
2017-10-16T15:25:44.393Z,10.60
2017-10-16T15:28:12.578Z,9.43
2017-10-16T15:30:40.788Z,9.50
2017-10-16T15:33:08.202Z,9.00
2017-10-16T15:35:36.394Z,10.00
2017-10-16T15:38:03.821Z,10.67
2017-10-16T15:40:31.233Z,10.20
2017-10-16T15:42:58.685Z,9.20
2017-10-16T15:45:26.085Z,9.33
2017-10-16T15:47:53.498Z,10.73
2017-10-16T15:50:20.917Z,11.10
2017-10-16T15:52:49.100Z,11.10
2017-10-16T15:55:16.572Z,9.93
2017-10-16T15:57:44.961Z,11.33
2017-10-16T16:00:12.386Z,10.47
2017-10-16T16:02:40.596Z,10.13
2017-10-16T16:05:08.037Z,9.20
2017-10-16T16:07:35.454Z,10.77
2017-10-16T16:10:02.883Z,10.50
2017-10-16T16:12:30.293Z,9.30
2017-10-16T16:14:57.712Z,12.03
2017-10-16T16:17:25.133Z,14.70
2017-10-16T16:19:52.536Z,13.30
2017-10-16T16:22:20.717Z,12.90
2017-10-16T16:24:48.910Z,13.30
2017-10-16T16:27:16.331Z,14.80
2017-10-16T16:29:43.749Z,12.17
2017-10-16T16:32:11.162Z,12.23
2017-10-16T16:34:39.350Z,8.10
2017-10-16T16:37:06.757Z,11.27
2017-10-16T16:39:34.181Z,10.37
2017-10-16T16:42:01.595Z,8.40
2017-10-16T16:44:29.009Z,10.27
2017-10-16T16:46:56.426Z,9.90
2017-10-16T16:49:24.619Z,11.40
2017-10-16T16:51:52.038Z,11.90
2017-10-16T16:54:20.235Z,11.03
2017-10-16T16:56:48.432Z,10.50
2017-10-16T16:59:15.837Z,10.53
2017-10-16T17:01:43.249Z,7.83
2017-10-16T17:04:10.661Z,7.73
2017-10-16T17:06:38.842Z,7.90
2017-10-16T17:09:07.022Z,7.97
2017-10-16T17:11:35.197Z,7.20
2017-10-16T17:14:02.613Z,7.93
2017-10-16T17:16:30.013Z,6.97
2017-10-16T17:18:57.438Z,7.20
2017-10-16T17:21:24.840Z,7.90
2017-10-16T17:23:52.256Z,8.00
2017-10-16T17:26:20.435Z,7.30
2017-10-16T17:28:48.609Z,7.17
2017-10-16T17:31:16.786Z,7.40
2017-10-16T17:33:44.964Z,7.90
2017-10-16T17:36:13.148Z,6.80
2017-10-16T17:38:41.331Z,8.00
2017-10-16T17:41:08.733Z,6.73
2017-10-16T17:43:36.156Z,7.03
2017-10-16T17:46:03.567Z,8.40
2017-10-16T17:48:30.977Z,9.07
2017-10-16T17:50:58.406Z,8.87
2017-10-16T17:53:25.850Z,9.13
2017-10-16T17:55:54.228Z,8.70
2017-10-16T17:58:22.409Z,9.03
2017-10-16T18:00:49.831Z,9.50
2017-10-16T18:03:17.249Z,9.20
2017-10-16T18:05:44.678Z,8.40
2017-10-16T18:08:12.846Z,10.33
2017-10-16T18:10:41.050Z,9.33
2017-10-16T18:13:08.451Z,9.03
2017-10-16T18:15:35.883Z,10.20
2017-10-16T18:18:03.277Z,8.60
2017-10-16T18:20:31.472Z,9.20
2017-10-16T18:22:59.645Z,9.10
2017-10-16T18:25:27.053Z,9.27
2017-10-16T18:27:55.234Z,9.57
2017-10-16T18:30:22.663Z,11.90
2017-10-16T18:32:50.081Z,10.70
2017-10-16T18:35:18.271Z,8.80
2017-10-16T18:37:45.674Z,8.53
2017-10-16T18:40:13.108Z,9.77
2017-10-16T18:42:40.518Z,9.47
2017-10-16T18:45:08.697Z,9.90
2017-10-16T18:47:36.883Z,8.57
2017-10-16T18:50:04.285Z,8.53
2017-10-16T18:52:31.711Z,8.20
2017-10-16T18:54:59.117Z,8.43
2017-10-16T18:57:26.541Z,8.90
2017-10-16T18:59:53.954Z,9.20
2017-10-16T19:02:21.373Z,8.70
2017-10-16T19:04:48.785Z,8.10
2017-10-16T19:07:16.209Z,9.20
2017-10-16T19:09:44.390Z,8.20
2017-10-16T19:12:12.578Z,10.80
2017-10-16T19:14:39.998Z,10.47
2017-10-16T19:17:07.422Z,11.27
2017-10-16T19:19:34.846Z,10.40
2017-10-16T19:22:02.262Z,11.43
2017-10-16T19:24:29.681Z,9.53
2017-10-16T19:26:57.098Z,8.97
2017-10-16T19:29:25.286Z,10.60
2017-10-16T19:31:52.701Z,9.03
2017-10-16T19:34:20.122Z,11.20
2017-10-16T19:36:47.537Z,11.57
2017-10-16T19:39:15.726Z,10.97
2017-10-16T19:41:43.138Z,10.50
2017-10-16T19:44:10.550Z,10.43
2017-10-16T19:46:37.970Z,9.60
2017-10-16T19:49:05.377Z,9.37
2017-10-16T19:51:32.802Z,9.47
2017-10-16T19:54:00.214Z,9.97
2017-10-16T19:56:27.645Z,9.20
2017-10-16T19:58:55.072Z,18.07
2017-10-16T20:01:23.259Z,14.70
2017-10-16T20:03:50.683Z,21.30
2017-10-16T20:06:18.869Z,107.17
2017-10-16T20:08:47.073Z,121.87
2017-10-16T20:11:14.495Z,12.60
2017-10-16T20:13:42.673Z,12.00
2017-10-16T20:16:10.857Z,12.70
2017-10-16T20:18:38.282Z,10.37
2017-10-16T20:21:05.701Z,11.63
2017-10-16T20:23:33.135Z,12.00
2017-10-16T20:26:00.538Z,8.10
2017-10-16T20:28:27.958Z,9.77
2017-10-16T20:30:55.382Z,11.73
2017-10-16T20:33:23.566Z,13.43
2017-10-16T20:35:51.009Z,14.83
2017-10-16T20:38:18.405Z,11.90
2017-10-16T20:40:46.478Z,13.57
2017-10-16T20:43:13.885Z,16.83
2017-10-16T20:45:42.073Z,12.40
2017-10-16T20:48:10.249Z,11.33
2017-10-16T20:50:38.442Z,10.47
2017-10-16T20:53:05.853Z,9.63
2017-10-16T20:55:33.273Z,12.43
2017-10-16T20:58:00.699Z,18.87
2017-10-16T21:00:28.108Z,17.57
2017-10-16T21:02:55.531Z,16.70
2017-10-16T21:05:22.963Z,16.23
2017-10-16T21:07:51.156Z,15.70
2017-10-16T21:10:18.572Z,16.93
2017-10-16T21:12:45.993Z,14.43
2017-10-16T21:15:13.410Z,15.13
2017-10-16T21:17:40.818Z,14.40
2017-10-16T21:20:08.241Z,33.70
2017-10-16T21:22:35.676Z,25.50
2017-10-16T21:25:03.854Z,14.13
2017-10-16T21:27:31.261Z,14.03
2017-10-16T21:29:58.690Z,16.33
2017-10-16T21:32:26.106Z,17.30
2017-10-16T21:34:54.293Z,16.03
2017-10-16T21:37:21.713Z,16.20
2017-10-16T21:39:49.139Z,15.70
2017-10-16T21:42:16.529Z,16.30
2017-10-16T21:44:43.949Z,17.43
2017-10-16T21:47:11.374Z,16.10
2017-10-16T21:49:38.793Z,15.17
2017-10-16T21:52:06.218Z,15.20
2017-10-16T21:54:33.633Z,13.60
2017-10-16T21:57:01.929Z,13.10
2017-10-16T21:59:29.350Z,13.73
2017-10-16T22:01:56.766Z,14.10
2017-10-16T22:04:24.191Z,14.13
2017-10-16T22:06:51.612Z,14.30
2017-10-16T22:09:19.029Z,14.87
2017-10-16T22:11:46.445Z,17.80
2017-10-16T22:14:15.637Z,16.00
2017-10-16T22:16:43.827Z,15.23
2017-10-16T22:19:11.255Z,14.30
2017-10-16T22:21:38.664Z,18.10
2017-10-16T22:24:06.094Z,18.27
2017-10-16T22:26:34.321Z,17.10
2017-10-16T22:29:01.750Z,17.00
2017-10-16T22:31:29.161Z,17.50
2017-10-16T22:33:57.346Z,16.77
2017-10-16T22:36:25.526Z,17.83
2017-10-16T22:38:52.955Z,17.33
2017-10-16T22:41:20.366Z,17.67
2017-10-16T22:43:47.792Z,17.50
2017-10-16T22:46:15.977Z,17.73
2017-10-16T22:48:43.398Z,17.57
2017-10-16T22:51:10.826Z,16.10
2017-10-16T22:53:38.254Z,16.97
2017-10-16T22:56:05.676Z,16.70
2017-10-16T22:58:33.094Z,16.03
2017-10-16T23:01:00.510Z,16.40
2017-10-16T23:03:27.929Z,15.83
2017-10-16T23:05:55.344Z,17.80
2017-10-16T23:08:22.762Z,18.40
2017-10-16T23:10:50.946Z,16.70
2017-10-16T23:13:18.374Z,17.90
2017-10-16T23:15:45.788Z,19.10
2017-10-16T23:18:13.215Z,20.53
2017-10-16T23:20:40.630Z,18.20
2017-10-16T23:23:08.062Z,17.10
2017-10-16T23:25:35.482Z,17.70
2017-10-16T23:28:04.091Z,17.30
2017-10-16T23:30:31.511Z,18.57
2017-10-16T23:32:59.701Z,16.00
2017-10-16T23:35:27.126Z,16.23
2017-10-16T23:37:54.559Z,17.50
2017-10-16T23:40:21.979Z,19.93
2017-10-16T23:42:49.408Z,17.57
2017-10-16T23:45:17.595Z,16.40
2017-10-16T23:47:45.782Z,17.40
2017-10-16T23:50:13.204Z,17.50
2017-10-16T23:52:40.630Z,17.23
2017-10-16T23:55:08.050Z,18.10
2017-10-16T23:57:35.481Z,15.93
